Canada's Largest FIR

CZEG Edmonton

Screenshot by Brad Derzaph

  Upcoming Events

Stay tuned here for upcoming events!

  Online Controllers

No controllers online.

  Weather

CYYC - Calgary International Airport  
CYYC 241300Z VRB05KT 20SM FEW120 FEW210 BKN250 15/01 A2981 RMK AC1CI2CI4 AC TR SLP089 DENSITY ALT 4600FT

CYEG - Edmonton International Airport  
CYEG 241300Z 26009KT 20SM FEW070 FEW250 11/06 A2973 RMK AC1CI1 AC TR CI TR SLP073 DENSITY ALT 2700FT

CYXY - Whitehorse / Erik Nielsen International Airport  
CYXY 241300Z 00000KT 40SM FEW080 BKN260 08/07 A2989 RMK AC2CI5 SLP140

CYZF - Yellowknife International Airport  
CYZF 241300Z 05011G19KT 15SM SCT170 BKN240 09/01 A2989 RMK AC4CI2 SLP131

CYMM - Fort McMurray Airport  
CYMM 241308Z AUTO 25005KT 9SM SCT011 OVC017 14/13 A2949 RMK SLP997 DENSITY ALT 1900FT

CYQF - Red Deer Regional Airport  
CYQF 241300Z AUTO 22004KT 9SM CLR 11/07 A2979 RMK SLP094 DENSITY ALT 3400FT

CZVL - Edmonton / Villeneuve Airport  
CZVL 241300Z AUTO 28010G16KT 9SM CLR 13/05 A2971 RMK SLP065 DENSITY ALT 2800FT

CYBW - Calgary / Springbank Airport  
CYBW 241300Z AUTO 35006KT 250V360 9SM OVC230 10/03 A2983 RMK SLP101 DENSITY ALT 4400FT

CYOD - CFB Cold Lake  
CYOD 241300Z 25008KT 15SM BKN100 12/10 A2959 RMK AC7 DENSITY ALT 2395FT SLP022

  View Our Airspace